Time;durP1;ratioP1;P1;durP2;ratioP2;P2;SDS_P1;SDS_P2;PMS_P1;PMS_P2;Temp;Humidity;BMP_temperature;BMP_pressure;BME280_temperature;BME280_humidity;BME280_pressure;Samples;Min_cycle;Max_cycle;Signal;HPM_P1;HPM_P2
2020/12/20 00:00:37;;;;;;;14.47;4.97;;;9.40;92.60;;;;;;5056148;28;20115;-75
2020/12/20 00:03:03;;;;;;;8.13;4.67;;;9.50;92.70;;;;;;5055556;28;20017;-76
2020/12/20 00:05:29;;;;;;;8.47;5.00;;;9.60;92.70;;;;;;5055692;28;20107;-75
2020/12/20 00:07:55;;;;;;;11.57;5.37;;;9.50;92.60;;;;;;5055600;28;20029;-76
2020/12/20 00:10:21;;;;;;;12.63;4.87;;;9.60;92.60;;;;;;5055510;28;20112;-74
2020/12/20 00:12:47;;;;;;;11.10;4.93;;;9.50;92.60;;;;;;5055854;28;20025;-75
2020/12/20 00:15:14;;;;;;;8.70;4.60;;;9.50;92.60;;;;;;5055962;28;20028;-76
2020/12/20 00:17:40;;;;;;;9.57;4.67;;;9.50;92.60;;;;;;5055310;28;20029;-75
2020/12/20 00:20:07;;;;;;;13.53;5.30;;;9.50;92.60;;;;;;5055152;28;20032;-75
2020/12/20 00:22:33;;;;;;;7.03;4.33;;;9.50;92.60;;;;;;5054102;28;20352;-74
2020/12/20 00:24:59;;;;;;;9.23;4.67;;;9.50;92.60;;;;;;5055307;28;20419;-75
2020/12/20 00:27:25;;;;;;;11.73;5.27;;;9.60;92.60;;;;;;5055204;28;20029;-74
2020/12/20 00:29:51;;;;;;;8.67;4.10;;;9.50;92.60;;;;;;5055131;28;20095;-74
2020/12/20 00:32:17;;;;;;;12.50;4.87;;;9.60;92.60;;;;;;5053902;28;20029;-75
2020/12/20 00:34:43;;;;;;;11.00;5.07;;;9.60;92.60;;;;;;5053705;28;20468;-75
2020/12/20 00:37:09;;;;;;;9.07;5.03;;;9.60;92.60;;;;;;5055168;28;20036;-75
2020/12/20 00:39:36;;;;;;;13.20;4.27;;;9.60;92.50;;;;;;5054878;28;20037;-75
2020/12/20 00:42:06;;;;;;;8.30;3.77;;;9.60;92.50;;;;;;5053655;28;20021;-75
2020/12/20 00:44:32;;;;;;;7.83;3.73;;;9.60;92.50;;;;;;5054651;28;20500;-74
2020/12/20 00:47:00;;;;;;;10.77;4.47;;;9.60;92.50;;;;;;5037091;28;20068;-74
2020/12/20 00:49:27;;;;;;;9.20;4.30;;;9.60;92.50;;;;;;5054659;28;20024;-75
2020/12/20 00:51:56;;;;;;;13.50;4.67;;;9.70;92.50;;;;;;5054648;28;20465;-77
2020/12/20 00:54:21;;;;;;;10.87;3.93;;;9.70;92.50;;;;;;5053412;28;20032;-75
2020/12/20 00:56:47;;;;;;;11.07;4.13;;;9.70;92.50;;;;;;5054480;28;20037;-76
2020/12/20 00:59:13;;;;;;;12.20;4.00;;;9.60;92.70;;;;;;5054395;28;20021;-76
2020/12/20 01:01:39;;;;;;;8.87;4.10;;;9.60;92.40;;;;;;5054504;28;20384;-75
2020/12/20 01:04:05;;;;;;;10.07;3.97;;;9.70;92.40;;;;;;5054316;28;20384;-75
2020/12/20 01:06:31;;;;;;;9.17;4.30;;;9.60;92.40;;;;;;5052618;28;20376;-76
2020/12/20 01:08:56;;;;;;;9.57;3.90;;;9.70;92.40;;;;;;5052804;28;20079;-75
2020/12/20 01:11:22;;;;;;;8.60;4.53;;;9.70;92.40;;;;;;5052803;28;20161;-76
2020/12/20 01:13:50;;;;;;;12.33;4.67;;;9.70;92.40;;;;;;5054088;28;20079;-75
2020/12/20 01:16:19;;;;;;;11.37;4.47;;;9.60;92.40;;;;;;5052892;28;20025;-75
2020/12/20 01:18:46;;;;;;;10.00;4.10;;;9.60;92.40;;;;;;5053950;28;20021;-75
2020/12/20 01:21:12;;;;;;;8.63;4.30;;;9.70;92.40;;;;;;5053962;28;20028;-76
2020/12/20 01:23:37;;;;;;;12.67;4.07;;;9.80;92.40;;;;;;5054371;28;20025;-77
2020/12/20 01:26:04;;;;;;;14.20;4.97;;;9.60;92.40;;;;;;5054092;28;20385;-76
2020/12/20 01:28:33;;;;;;;8.47;3.73;;;9.60;92.40;;;;;;5052758;28;20055;-76
2020/12/20 01:31:00;;;;;;;10.77;4.20;;;9.60;92.40;;;;;;5053831;28;20037;-74
2020/12/20 01:33:26;;;;;;;8.53;3.63;;;9.70;92.40;;;;;;5052556;28;20099;-75
2020/12/20 01:35:52;;;;;;;9.77;3.93;;;9.70;92.40;;;;;;5053740;28;20062;-75
2020/12/20 01:38:17;;;;;;;11.53;4.33;;;9.60;92.40;;;;;;5053667;28;20094;-75
2020/12/20 01:40:54;;;;;;;11.40;3.43;;;9.70;92.40;;;;;;5053622;28;20067;-75
2020/12/20 01:43:20;;;;;;;11.53;4.20;;;9.60;92.30;;;;;;5053571;28;20032;-76
2020/12/20 01:45:46;;;;;;;10.43;4.30;;;9.60;92.30;;;;;;5053592;28;20361;-75
2020/12/20 01:48:13;;;;;;;9.33;3.87;;;9.60;92.30;;;;;;5053585;28;20077;-76
2020/12/20 01:50:39;;;;;;;9.67;3.50;;;9.60;92.40;;;;;;5053516;28;20078;-75
2020/12/20 01:53:05;;;;;;;9.10;4.03;;;9.70;92.40;;;;;;5053521;28;20651;-75
2020/12/20 01:55:31;;;;;;;11.27;4.17;;;9.70;92.40;;;;;;5053405;28;20120;-76
2020/12/20 01:57:58;;;;;;;11.07;3.70;;;9.70;92.30;;;;;;5052266;28;20123;-76
2020/12/20 02:00:24;;;;;;;11.17;4.00;;;9.60;92.30;;;;;;5053445;28;20025;-75
2020/12/20 02:02:50;;;;;;;8.57;3.50;;;9.70;92.30;;;;;;5053259;28;20029;-76
2020/12/20 02:05:16;;;;;;;8.13;3.87;;;9.70;92.30;;;;;;5053142;28;20044;-76
2020/12/20 02:07:41;;;;;;;9.43;3.37;;;9.70;92.30;;;;;;5053275;28;20021;-75
2020/12/20 02:10:07;;;;;;;7.77;3.07;;;9.60;92.30;;;;;;5053379;28;20369;-74
2020/12/20 02:12:33;;;;;;;8.90;3.83;;;9.80;92.30;;;;;;5052183;28;20025;-75
2020/12/20 02:14:59;;;;;;;11.63;3.23;;;9.70;92.20;;;;;;5053387;28;20035;-76
2020/12/20 02:17:24;;;;;;;7.03;3.13;;;9.70;92.30;;;;;;5051158;28;20534;-76
2020/12/20 02:19:50;;;;;;;10.30;4.10;;;9.60;92.20;;;;;;5051736;28;20025;-75
2020/12/20 02:22:16;;;;;;;10.67;3.23;;;9.70;92.20;;;;;;5051903;28;20021;-76
2020/12/20 02:24:43;;;;;;;10.83;3.80;;;9.70;92.20;;;;;;5051801;28;20048;-75
2020/12/20 02:27:08;;;;;;;13.43;3.63;;;9.70;92.20;;;;;;5053364;28;20024;-77
2020/12/20 02:29:34;;;;;;;11.40;3.20;;;9.70;92.20;;;;;;5036030;28;20030;-75
2020/12/20 02:32:00;;;;;;;7.67;3.40;;;9.50;92.20;;;;;;5053334;28;20021;-75
2020/12/20 02:34:26;;;;;;;17.33;4.17;;;9.50;92.20;;;;;;5052884;28;20025;-76
2020/12/20 02:36:52;;;;;;;11.93;3.57;;;9.60;92.20;;;;;;5051741;28;20056;-76
2020/12/20 02:39:18;;;;;;;7.53;4.07;;;9.70;92.20;;;;;;5051723;28;20475;-76
2020/12/20 02:41:44;;;;;;;7.43;3.47;;;9.60;92.20;;;;;;5053368;28;20035;-76
2020/12/20 02:44:10;;;;;;;11.13;3.70;;;9.50;92.20;;;;;;5052061;28;20108;-75
2020/12/20 02:46:35;;;;;;;9.10;3.20;;;9.50;92.20;;;;;;5035117;28;20025;-77
2020/12/20 02:49:01;;;;;;;10.87;3.30;;;9.60;92.20;;;;;;5051796;28;20022;-74
2020/12/20 02:51:27;;;;;;;9.27;3.13;;;9.50;92.20;;;;;;5053014;28;20476;-75
2020/12/20 02:53:53;;;;;;;12.27;3.90;;;9.50;92.20;;;;;;5051534;28;20033;-75
2020/12/20 02:56:19;;;;;;;10.83;3.87;;;9.50;92.20;;;;;;5052927;28;20040;-75
2020/12/20 02:58:46;;;;;;;10.83;3.37;;;9.50;92.60;;;;;;5053006;28;20047;-75
2020/12/20 03:01:12;;;;;;;10.57;3.10;;;9.50;92.30;;;;;;5052933;28;20036;-76
2020/12/20 03:03:38;;;;;;;7.00;3.10;;;9.50;92.30;;;;;;5051468;28;20041;-75
2020/12/20 03:06:04;;;;;;;12.93;4.50;;;9.60;92.40;;;;;;5052926;28;20033;-75
2020/12/20 03:08:30;;;;;;;9.63;3.27;;;9.60;92.40;;;;;;5052683;28;20473;-76
2020/12/20 03:10:55;;;;;;;14.23;3.87;;;9.50;92.40;;;;;;5052742;28;20044;-76
2020/12/20 03:13:21;;;;;;;11.77;3.90;;;9.50;92.40;;;;;;5053001;28;20155;-75
2020/12/20 03:15:46;;;;;;;6.27;3.30;;;9.50;92.40;;;;;;5053049;28;20474;-74
2020/12/20 03:18:12;;;;;;;8.63;3.07;;;9.50;92.40;;;;;;5051468;28;20057;-76
2020/12/20 03:20:38;;;;;;;11.73;3.30;;;9.50;92.40;;;;;;5052546;28;20082;-82
2020/12/20 03:23:04;;;;;;;9.93;3.57;;;9.50;92.40;;;;;;5051490;28;20055;-82
2020/12/20 03:25:33;;;;;;;8.70;2.70;;;9.50;92.40;;;;;;5051442;28;20017;-82
2020/12/20 03:27:59;;;;;;;9.07;2.70;;;9.50;92.30;;;;;;5035363;28;20116;-82
2020/12/20 03:30:26;;;;;;;10.17;3.70;;;9.50;92.30;;;;;;5038353;28;20061;-82
2020/12/20 03:32:51;;;;;;;10.83;3.47;;;9.60;92.40;;;;;;5054920;28;20420;-82
2020/12/20 03:35:17;;;;;;;8.60;3.50;;;9.60;92.30;;;;;;5038188;28;20029;-81
2020/12/20 03:37:52;;;;;;;8.63;3.37;;;9.60;92.30;;;;;;5054896;28;20021;-76
2020/12/20 03:40:20;;;;;;;10.10;3.97;;;9.60;92.40;;;;;;5054601;28;20032;-75
2020/12/20 03:42:46;;;;;;;10.83;3.60;;;9.60;92.30;;;;;;5056059;28;20113;-76
2020/12/20 03:45:13;;;;;;;13.03;3.53;;;9.60;92.30;;;;;;5038051;28;20171;-75
2020/12/20 03:47:39;;;;;;;7.43;3.57;;;9.50;92.30;;;;;;5054483;28;20025;-76
2020/12/20 03:50:05;;;;;;;9.53;3.20;;;9.60;92.30;;;;;;5054551;28;20086;-75
2020/12/20 03:52:30;;;;;;;9.97;3.17;;;9.60;92.30;;;;;;5055752;28;20032;-75
2020/12/20 03:54:56;;;;;;;9.37;3.17;;;9.60;92.30;;;;;;5055690;28;20023;-76
2020/12/20 03:57:22;;;;;;;10.47;3.27;;;9.60;92.30;;;;;;5054288;28;20028;-76
2020/12/20 03:59:47;;;;;;;11.87;3.30;;;9.60;92.30;;;;;;5055522;28;20033;-75
2020/12/20 04:02:13;;;;;;;11.23;4.17;;;9.60;92.20;;;;;;5055467;28;20029;-75
2020/12/20 04:04:38;;;;;;;7.30;3.03;;;9.50;92.20;;;;;;5054270;28;20579;-77
2020/12/20 04:07:04;;;;;;;9.57;3.17;;;9.50;92.20;;;;;;5038295;28;20029;-75
2020/12/20 04:09:30;;;;;;;13.13;3.80;;;9.60;92.30;;;;;;5054218;28;20040;-75
2020/12/20 04:11:55;;;;;;;8.90;3.27;;;9.60;92.30;;;;;;5055441;28;20059;-76
2020/12/20 04:14:21;;;;;;;11.20;3.10;;;9.60;92.20;;;;;;5055239;28;20028;-75
2020/12/20 04:16:46;;;;;;;6.97;3.20;;;9.50;92.20;;;;;;5054026;28;20028;-76
2020/12/20 04:19:12;;;;;;;11.83;4.13;;;9.50;92.50;;;;;;5037244;28;20033;-75
2020/12/20 04:21:38;;;;;;;9.37;3.70;;;9.60;92.20;;;;;;5055124;28;20048;-76
2020/12/20 04:24:03;;;;;;;7.00;3.20;;;9.70;92.40;;;;;;5053958;28;20025;-76
2020/12/20 04:26:29;;;;;;;9.53;3.77;;;9.60;92.20;;;;;;5055173;28;20059;-76
2020/12/20 04:28:54;;;;;;;8.23;3.03;;;9.60;92.20;;;;;;5053935;28;20021;-75
2020/12/20 04:31:25;;;;;;;10.10;3.23;;;9.60;92.20;;;;;;5055343;28;20094;-76
2020/12/20 04:33:51;;;;;;;10.67;3.20;;;9.50;92.20;;;;;;5054772;28;20071;-76
2020/12/20 04:36:17;;;;;;;9.73;3.20;;;9.60;92.20;;;;;;5054797;28;20020;-75
2020/12/20 04:38:42;;;;;;;10.93;3.10;;;9.60;92.20;;;;;;5053508;28;20026;-75
2020/12/20 04:41:12;;;;;;;9.77;2.73;;;9.50;92.10;;;;;;5053869;28;20043;-76
2020/12/20 04:43:38;;;;;;;10.07;2.90;;;9.60;92.40;;;;;;5053397;28;20573;-75
2020/12/20 04:46:05;;;;;;;9.87;3.20;;;9.60;92.20;;;;;;5053449;28;20025;-75
2020/12/20 04:48:40;;;;;;;7.27;2.57;;;9.60;92.10;;;;;;5054576;28;20017;-76
2020/12/20 04:51:07;;;;;;;12.63;2.90;;;9.60;92.10;;;;;;5054848;28;20508;-75
2020/12/20 04:53:33;;;;;;;12.13;4.10;;;9.50;92.10;;;;;;5053647;28;20071;-75
2020/12/20 04:56:05;;;;;;;11.37;3.67;;;9.60;92.10;;;;;;5053169;28;20059;-75
2020/12/20 04:58:31;;;;;;;8.03;2.40;;;9.60;92.10;;;;;;5054420;28;20534;-76
2020/12/20 05:01:00;;;;;;;11.63;3.73;;;9.80;92.20;;;;;;5058748;28;20013;-74
2020/12/20 05:03:27;;;;;;;8.27;2.57;;;9.70;92.20;;;;;;5073235;28;20070;-74
2020/12/20 05:05:53;;;;;;;10.47;3.20;;;9.60;92.10;;;;;;5073927;28;20360;-76
2020/12/20 05:08:21;;;;;;;8.07;2.70;;;9.60;92.10;;;;;;5073828;28;20017;-74
2020/12/20 05:10:47;;;;;;;9.53;3.10;;;9.60;92.10;;;;;;5073104;28;20380;-75
2020/12/20 05:13:13;;;;;;;10.03;3.00;;;9.60;92.10;;;;;;5074568;28;20024;-76
2020/12/20 05:15:39;;;;;;;9.40;3.00;;;9.60;92.40;;;;;;5073923;28;20425;-74
2020/12/20 05:18:13;;;;;;;9.63;2.50;;;9.60;92.10;;;;;;5074276;28;20020;-75
2020/12/20 05:20:46;;;;;;;8.23;3.03;;;9.50;92.10;;;;;;5073918;28;20049;-75
2020/12/20 05:23:14;;;;;;;10.57;3.72;;;9.60;92.10;;;;;;5073949;28;20024;-75
2020/12/20 05:25:40;;;;;;;11.37;2.63;;;9.50;92.00;;;;;;5073879;28;20103;-76
2020/12/20 05:28:24;;;;;;;6.83;2.57;;;9.60;92.10;;;;;;5072607;28;20021;-76
2020/12/20 05:30:49;;;;;;;11.87;2.63;;;9.60;92.10;;;;;;5072564;28;20059;-75
2020/12/20 05:33:30;;;;;;;9.17;2.73;;;9.60;92.00;;;;;;5074078;28;20445;-75
2020/12/20 05:36:04;;;;;;;9.07;3.03;;;9.60;92.00;;;;;;5073844;28;20024;-75
2020/12/20 05:38:31;;;;;;;11.57;2.97;;;9.60;92.10;;;;;;5073824;28;20046;-75
2020/12/20 05:40:57;;;;;;;10.23;3.03;;;9.60;92.30;;;;;;5072501;28;20388;-75
2020/12/20 05:43:24;;;;;;;7.43;2.93;;;9.60;92.10;;;;;;5073502;28;20021;-75
2020/12/20 05:45:50;;;;;;;8.43;2.40;;;9.50;92.00;;;;;;5073620;28;20111;-75
2020/12/20 05:48:18;;;;;;;8.13;2.83;;;9.60;92.10;;;;;;5072383;28;20052;-75
2020/12/20 05:51:06;;;;;;;13.17;3.43;;;9.60;92.10;;;;;;5072285;28;20024;-75
2020/12/20 05:53:34;;;;;;;11.30;2.93;;;9.60;92.00;;;;;;5072551;28;20036;-76
2020/12/20 05:56:02;;;;;;;9.13;2.73;;;9.60;92.10;;;;;;5073616;28;20020;-75
2020/12/20 05:58:28;;;;;;;9.57;2.27;;;9.60;92.00;;;;;;5073547;28;20035;-75
2020/12/20 06:00:56;;;;;;;8.17;2.50;;;9.60;92.00;;;;;;5072860;28;20453;-76
2020/12/20 06:03:22;;;;;;;7.73;2.30;;;9.60;92.00;;;;;;5073486;28;20159;-75
2020/12/20 06:05:48;;;;;;;11.07;2.77;;;9.60;92.00;;;;;;5073436;28;20568;-75
2020/12/20 06:08:22;;;;;;;13.93;2.87;;;9.50;92.00;;;;;;5072390;28;20021;-75
2020/12/20 06:10:51;;;;;;;7.73;3.17;;;9.60;92.00;;;;;;5072069;28;20379;-75
2020/12/20 06:13:19;;;;;;;9.20;2.47;;;9.50;92.00;;;;;;5073292;28;20017;-75
2020/12/20 06:15:57;;;;;;;13.83;2.60;;;9.60;92.00;;;;;;5072150;28;20029;-76
2020/12/20 06:18:26;;;;;;;8.80;2.73;;;9.60;92.00;;;;;;5072488;28;20044;-75
2020/12/20 06:20:52;;;;;;;12.30;2.67;;;9.60;92.00;;;;;;5072348;28;20024;-76
2020/12/20 06:23:23;;;;;;;14.80;3.30;;;9.50;92.00;;;;;;5064238;28;20116;-75
2020/12/20 06:25:50;;;;;;;8.93;2.30;;;9.60;92.00;;;;;;5052919;28;20017;-76
2020/12/20 06:28:18;;;;;;;10.20;2.63;;;9.60;92.00;;;;;;5051567;28;20021;-76
2020/12/20 06:30:45;;;;;;;9.03;2.60;;;9.50;92.00;;;;;;5052783;28;20087;-77
2020/12/20 06:33:17;;;;;;;8.73;2.80;;;9.50;92.00;;;;;;5051953;28;20033;-83
2020/12/20 06:35:45;;;;;;;8.07;2.50;;;9.50;92.00;;;;;;5052011;28;20031;-83
2020/12/20 06:38:17;;;;;;;9.77;2.70;;;9.70;92.10;;;;;;5035589;28;20025;-83
2020/12/20 06:40:43;;;;;;;7.30;2.13;;;9.50;92.00;;;;;;5051933;28;20035;-83
2020/12/20 06:43:10;;;;;;;11.07;2.63;;;9.50;92.00;;;;;;5051983;28;20021;-83
2020/12/20 06:45:44;;;;;;;10.93;3.70;;;9.50;92.30;;;;;;5036679;28;20055;-83
2020/12/20 06:48:12;;;;;;;8.18;3.13;;;9.50;92.00;;;;;;5053068;28;20028;-83
2020/12/20 06:50:38;;;;;;;6.87;2.43;;;9.50;92.10;;;;;;5051924;28;20047;-82
2020/12/20 06:53:04;;;;;;;14.90;2.97;;;9.40;92.10;;;;;;5051800;28;20063;-83
2020/12/20 06:55:30;;;;;;;10.33;2.83;;;9.60;92.20;;;;;;5051593;28;20024;-83
2020/12/20 06:58:01;;;;;;;10.47;2.87;;;9.50;92.20;;;;;;5051955;28;20151;-82
2020/12/20 07:00:48;;;;;;;10.63;2.90;;;9.40;92.10;;;;;;5051618;28;20044;-83
2020/12/20 07:03:32;;;;;;;9.50;2.70;;;9.40;92.10;;;;;;5051791;28;20064;-83
2020/12/20 07:06:07;;;;;;;13.07;2.95;;;9.50;92.10;;;;;;5055635;28;20396;-82
2020/12/20 07:08:34;;;;;;;11.17;2.63;;;9.50;92.10;;;;;;5055453;28;20095;-83
2020/12/20 07:11:21;;;;;;;14.67;2.83;;;9.50;92.20;;;;;;5039118;28;20034;-83
2020/12/20 07:13:49;;;;;;;12.20;2.80;;;9.40;92.10;;;;;;5041510;28;20052;-83
2020/12/20 07:16:20;;;;;;;10.50;2.50;;;9.40;92.10;;;;;;5055364;28;20120;-83
2020/12/20 07:19:01;;;;;;;10.43;2.83;;;9.40;92.20;;;;;;5055208;28;20025;-82
2020/12/20 07:21:39;;;;;;;11.83;2.53;;;9.40;92.20;;;;;;5055072;28;20025;-82
2020/12/20 07:24:10;;;;;;;10.87;3.23;;;9.40;92.20;;;;;;5056184;28;20016;-82
2020/12/20 07:26:36;;;;;;;7.40;2.60;;;9.40;92.20;;;;;;5055040;28;20021;-83
2020/12/20 07:29:03;;;;;;;16.57;3.30;;;9.40;92.20;;;;;;5038321;28;20481;-82
2020/12/20 07:31:29;;;;;;;11.20;2.73;;;9.40;92.20;;;;;;5054866;28;20028;-83
2020/12/20 07:33:55;;;;;;;7.17;2.83;;;9.30;92.20;;;;;;5038473;28;20362;-82
2020/12/20 07:36:21;;;;;;;16.83;3.17;;;9.40;92.30;;;;;;5054922;28;20032;-82
2020/12/20 07:38:48;;;;;;;12.23;3.33;;;9.40;92.50;;;;;;5038346;28;20112;-83
2020/12/20 07:41:16;;;;;;;11.63;3.33;;;9.30;92.20;;;;;;5054832;28;20107;-83
2020/12/20 07:43:43;;;;;;;10.63;2.83;;;9.40;92.20;;;;;;5054895;28;20423;-83
2020/12/20 07:46:11;;;;;;;14.03;3.40;;;9.40;92.30;;;;;;5054890;28;20104;-83
2020/12/20 07:48:37;;;;;;;12.77;3.00;;;9.30;92.20;;;;;;5064180;28;20104;-83
2020/12/20 07:51:10;;;;;;;12.57;2.80;;;9.30;92.50;;;;;;5057498;28;20070;-83
2020/12/20 07:53:52;;;;;;;12.10;3.20;;;9.40;92.30;;;;;;5056121;28;20029;-82
2020/12/20 07:56:32;;;;;;;11.07;3.23;;;9.30;92.30;;;;;;5060534;28;20098;-83
2020/12/20 07:59:04;;;;;;;13.43;3.10;;;9.30;92.30;;;;;;5047064;28;20501;-83
2020/12/20 08:01:30;;;;;;;11.43;3.00;;;9.30;92.30;;;;;;5074424;28;20039;-82
2020/12/20 08:04:05;;;;;;;9.20;3.27;;;9.30;92.30;;;;;;5068322;28;20496;-82
2020/12/20 08:06:33;;;;;;;12.50;2.73;;;9.30;92.40;;;;;;5073506;28;20082;-82
2020/12/20 08:09:08;;;;;;;9.67;2.80;;;9.30;92.40;;;;;;5066553;28;20062;-82
2020/12/20 08:11:34;;;;;;;13.00;3.30;;;9.30;92.40;;;;;;5077016;28;20039;-83
2020/12/20 08:14:03;;;;;;;13.10;3.73;;;9.30;92.40;;;;;;5062255;28;20108;-83
2020/12/20 08:16:37;;;;;;;13.63;3.63;;;9.30;92.70;;;;;;5091403;28;20024;-83
2020/12/20 08:19:08;;;;;;;9.68;3.00;;;9.30;92.40;;;;;;5064640;28;20494;-82
2020/12/20 08:21:59;;;;;;;10.73;2.50;;;9.30;92.40;;;;;;5089938;28;20468;-83
2020/12/20 08:24:29;;;;;;;11.90;3.00;;;9.30;92.40;;;;;;5068050;28;20028;-83
2020/12/20 08:26:55;;;;;;;13.23;2.77;;;9.30;92.40;;;;;;5081846;28;20054;-85
2020/12/20 08:29:21;;;;;;;12.23;3.20;;;9.30;92.40;;;;;;5054478;28;20091;-82
2020/12/20 08:31:47;;;;;;;12.87;3.07;;;9.30;92.40;;;;;;5089973;28;20032;-83
2020/12/20 08:34:23;;;;;;;15.43;3.10;;;9.40;92.40;;;;;;5077332;28;20475;-83
2020/12/20 08:36:53;;;;;;;14.80;2.80;;;9.30;92.40;;;;;;5077356;28;20032;-82
2020/12/20 08:39:24;;;;;;;10.27;2.40;;;9.40;92.40;;;;;;5094554;28;20082;-83
2020/12/20 08:42:00;;;;;;;15.00;2.60;;;9.40;92.40;;;;;;5077188;28;20021;-83
2020/12/20 08:44:26;;;;;;;14.63;3.40;;;9.40;92.40;;;;;;5073598;28;20119;-83
2020/12/20 08:46:52;;;;;;;11.10;2.90;;;9.40;92.30;;;;;;5057142;28;20024;-84
2020/12/20 08:49:23;;;;;;;17.27;3.60;;;9.40;92.30;;;;;;5073924;28;20031;-83
2020/12/20 08:51:49;;;;;;;16.40;3.70;;;9.50;92.30;;;;;;5073799;28;20025;-83
2020/12/20 08:54:25;;;;;;;12.07;2.37;;;9.50;92.30;;;;;;5073733;28;20048;-84
2020/12/20 08:57:06;;;;;;;13.40;2.77;;;9.50;92.30;;;;;;5073761;28;20017;-84
2020/12/20 08:59:39;;;;;;;15.47;2.80;;;9.50;92.50;;;;;;5073514;28;20384;-85
2020/12/20 09:02:06;;;;;;;13.20;2.88;;;9.50;92.20;;;;;;5073823;28;20473;-85
2020/12/20 09:04:35;;;;;;;17.10;3.80;;;9.50;92.20;;;;;;5075182;28;20396;-84
2020/12/20 09:07:03;;;;;;;13.10;3.10;;;9.60;92.20;;;;;;5074253;28;20487;-84
2020/12/20 09:09:29;;;;;;;10.90;3.13;;;9.60;92.20;;;;;;5073707;28;20074;-83
2020/12/20 09:12:12;;;;;;;8.30;2.40;;;9.70;92.20;;;;;;5057074;28;20092;-84
2020/12/20 09:14:38;;;;;;;16.13;2.73;;;9.70;92.10;;;;;;5073325;28;20036;-84
2020/12/20 09:17:04;;;;;;;13.60;2.90;;;9.70;92.00;;;;;;5073350;28;20028;-84
2020/12/20 09:19:30;;;;;;;8.77;2.00;;;9.70;92.00;;;;;;5073187;28;20031;-84
2020/12/20 09:21:55;;;;;;;13.23;3.07;;;9.70;91.90;;;;;;5073633;28;20115;-84
2020/12/20 09:24:21;;;;;;;11.37;2.73;;;9.80;91.90;;;;;;5056440;28;20102;-84
2020/12/20 09:26:55;;;;;;;11.93;2.40;;;9.70;91.80;;;;;;5056006;28;20043;-84
2020/12/20 09:29:20;;;;;;;10.20;2.30;;;9.90;91.80;;;;;;5057005;28;20473;-84
2020/12/20 09:31:46;;;;;;;13.30;2.67;;;9.80;91.80;;;;;;5056422;28;20308;-84
2020/12/20 09:34:11;;;;;;;11.77;2.57;;;9.90;91.80;;;;;;5056571;28;20040;-84
2020/12/20 09:36:38;;;;;;;14.57;3.20;;;9.90;91.70;;;;;;5039471;28;20464;-83
2020/12/20 09:39:04;;;;;;;15.70;2.80;;;9.90;91.60;;;;;;5072868;28;20509;-74
2020/12/20 09:41:31;;;;;;;12.27;2.23;;;10.00;91.60;;;;;;5073251;28;20032;-76
2020/12/20 09:43:59;;;;;;;11.87;3.10;;;9.90;91.60;;;;;;5072111;28;21331;-76
2020/12/20 09:46:25;;;;;;;14.67;3.13;;;10.00;91.50;;;;;;5052069;28;20032;-75
2020/12/20 09:48:52;;;;;;;11.47;3.10;;;10.00;91.50;;;;;;5053375;28;20028;-75
2020/12/20 09:51:20;;;;;;;13.27;3.17;;;10.00;91.40;;;;;;5052323;28;20033;-75
2020/12/20 09:53:45;;;;;;;15.63;2.77;;;9.90;91.30;;;;;;5052245;28;20025;-74
2020/12/20 09:56:12;;;;;;;14.90;2.83;;;10.10;91.40;;;;;;5053344;28;20163;-74
2020/12/20 09:58:39;;;;;;;11.03;2.43;;;10.10;91.20;;;;;;5053022;28;20055;-75
2020/12/20 10:01:05;;;;;;;9.93;2.20;;;10.10;91.30;;;;;;5053215;28;20029;-77
2020/12/20 10:03:30;;;;;;;16.60;3.53;;;10.10;91.20;;;;;;5053193;28;20507;-76
2020/12/20 10:05:59;;;;;;;8.93;2.73;;;10.20;91.50;;;;;;5053431;28;20061;-76
2020/12/20 10:08:26;;;;;;;12.30;2.13;;;10.20;91.20;;;;;;5053170;28;20488;-76
2020/12/20 10:10:55;;;;;;;10.67;2.60;;;10.20;91.20;;;;;;5068635;28;20048;-75
2020/12/20 10:13:22;;;;;;;15.30;3.23;;;10.20;91.00;;;;;;5055219;28;20392;-77
2020/12/20 10:15:48;;;;;;;17.20;2.63;;;10.20;91.00;;;;;;5072075;28;20056;-76
2020/12/20 10:18:14;;;;;;;15.90;3.07;;;10.40;91.00;;;;;;5073129;28;20032;-77
2020/12/20 10:20:39;;;;;;;11.20;2.70;;;10.20;91.00;;;;;;5055026;28;20036;-76
2020/12/20 10:23:05;;;;;;;11.73;2.87;;;10.30;90.90;;;;;;5055276;28;20059;-75
2020/12/20 10:25:31;;;;;;;18.70;3.60;;;10.30;90.90;;;;;;5054951;28;20468;-76
2020/12/20 10:27:57;;;;;;;13.13;3.37;;;10.30;90.90;;;;;;5073497;28;20020;-77
2020/12/20 10:30:24;;;;;;;12.13;2.87;;;10.30;90.80;;;;;;5073124;28;20036;-76
2020/12/20 10:32:50;;;;;;;16.23;2.97;;;10.30;90.80;;;;;;5073154;28;20032;-76
2020/12/20 10:35:17;;;;;;;17.87;3.63;;;10.30;90.80;;;;;;5051047;28;20043;-75
2020/12/20 10:37:43;;;;;;;15.47;2.67;;;10.30;91.00;;;;;;5053396;28;20065;-75
2020/12/20 10:40:09;;;;;;;10.60;2.63;;;10.50;90.80;;;;;;5056293;28;20126;-76
2020/12/20 10:42:35;;;;;;;11.40;2.13;;;10.30;90.80;;;;;;5057210;28;20025;-76
2020/12/20 10:45:00;;;;;;;18.30;2.70;;;10.40;90.70;;;;;;5056859;28;20108;-76
2020/12/20 10:47:26;;;;;;;9.03;2.23;;;10.40;90.70;;;;;;5056941;28;20033;-76
2020/12/20 10:49:52;;;;;;;17.47;3.53;;;10.50;90.60;;;;;;5055544;28;20033;-76
2020/12/20 10:52:17;;;;;;;12.33;2.57;;;10.50;90.60;;;;;;5056799;28;20544;-76
2020/12/20 10:54:44;;;;;;;14.13;2.70;;;10.50;90.70;;;;;;5056762;28;20029;-75
2020/12/20 10:57:09;;;;;;;18.00;2.87;;;10.70;90.70;;;;;;5056983;28;20037;-78
2020/12/20 10:59:35;;;;;;;14.27;1.73;;;10.70;90.70;;;;;;5039211;28;20033;-84
2020/12/20 11:02:01;;;;;;;17.00;2.53;;;10.70;90.40;;;;;;5055850;28;20028;-82
2020/12/20 11:04:26;;;;;;;17.40;2.93;;;10.80;90.40;;;;;;5056799;28;20049;-82
2020/12/20 11:06:56;;;;;;;11.33;1.97;;;10.90;90.00;;;;;;5055513;28;20473;-82
2020/12/20 11:09:24;;;;;;;15.70;2.93;;;11.00;90.10;;;;;;5039558;28;20087;-83
2020/12/20 11:11:50;;;;;;;16.67;3.00;;;11.00;90.00;;;;;;5039100;28;20033;-83
2020/12/20 11:14:16;;;;;;;12.80;2.73;;;11.10;89.60;;;;;;5056536;28;20033;-83
2020/12/20 11:16:41;;;;;;;17.70;3.53;;;11.10;89.50;;;;;;5039626;28;20032;-81
2020/12/20 11:19:07;;;;;;;15.70;3.03;;;11.30;89.20;;;;;;5038806;28;20029;-82
2020/12/20 11:21:33;;;;;;;13.50;2.08;;;11.30;88.70;;;;;;5055383;28;20479;-83
2020/12/20 11:23:59;;;;;;;11.73;2.90;;;11.40;88.40;;;;;;5038565;28;20029;-84
2020/12/20 11:26:25;;;;;;;11.43;2.30;;;11.40;88.20;;;;;;5055183;28;20056;-83
2020/12/20 11:28:52;;;;;;;17.03;3.00;;;11.40;87.80;;;;;;5056361;28;20412;-83
2020/12/20 11:31:23;;;;;;;14.23;2.85;;;11.40;87.60;;;;;;5075895;28;20040;-82
2020/12/20 11:33:52;;;;;;;13.43;2.70;;;11.40;86.90;;;;;;5076223;28;20471;-82
2020/12/20 11:36:22;;;;;;;11.57;3.33;;;11.50;86.80;;;;;;5074873;28;20056;-83
2020/12/20 11:38:48;;;;;;;17.80;3.30;;;11.50;86.50;;;;;;5075327;28;20029;-83
2020/12/20 11:41:14;;;;;;;9.60;2.95;;;11.70;85.90;;;;;;5074742;28;20040;-83
2020/12/20 11:43:41;;;;;;;16.45;3.55;;;11.80;85.70;;;;;;5074620;28;20020;-83
2020/12/20 11:46:09;;;;;;;22.80;3.35;;;11.90;85.40;;;;;;5074762;28;20049;-82
2020/12/20 11:48:34;;;;;;;18.63;3.90;;;12.20;86.00;;;;;;5075989;28;20025;-84
2020/12/20 11:51:00;;;;;;;13.68;3.95;;;12.60;85.10;;;;;;5071525;28;20084;-84
2020/12/20 11:53:26;;;;;;;12.10;2.90;;;13.00;83.70;;;;;;5038141;28;20045;-83
2020/12/20 11:55:52;;;;;;;11.52;2.50;;;13.20;82.80;;;;;;5054670;28;20110;-84
2020/12/20 11:58:18;;;;;;;18.52;3.65;;;13.50;81.90;;;;;;5054415;28;20480;-83
2020/12/20 12:00:45;;;;;;;11.45;3.08;;;13.60;80.30;;;;;;5055455;28;20052;-77
2020/12/20 12:03:12;;;;;;;9.43;2.70;;;13.80;80.50;;;;;;5055463;28;20052;-76
2020/12/20 12:05:43;;;;;;;12.45;2.97;;;14.10;79.10;;;;;;5059490;28;20070;-74
2020/12/20 12:08:10;;;;;;;9.73;2.83;;;14.40;78.60;;;;;;5075430;28;20495;-78
2020/12/20 12:10:41;;;;;;;11.90;2.88;;;14.60;78.10;;;;;;5075250;28;20024;-75
2020/12/20 12:13:07;;;;;;;10.20;2.80;;;14.70;76.50;;;;;;5075179;28;20106;-76
2020/12/20 12:15:33;;;;;;;18.55;3.20;;;14.60;76.50;;;;;;5073780;28;20065;-75
2020/12/20 12:18:01;;;;;;;13.23;2.85;;;14.60;76.10;;;;;;5057430;28;20043;-75
2020/12/20 12:20:27;;;;;;;11.68;2.85;;;14.70;75.80;;;;;;5075098;28;20108;-74
2020/12/20 12:22:53;;;;;;;11.55;2.78;;;14.90;76.00;;;;;;5075288;28;20138;-75
2020/12/20 12:25:18;;;;;;;15.52;3.33;;;14.90;75.80;;;;;;5075236;28;20043;-75
2020/12/20 12:27:44;;;;;;;13.63;3.13;;;15.00;74.20;;;;;;5073871;28;20373;-75
2020/12/20 12:30:10;;;;;;;16.33;3.17;;;15.00;72.50;;;;;;5075054;28;20472;-76
2020/12/20 12:32:36;;;;;;;13.38;2.83;;;14.80;71.60;;;;;;5075113;28;20387;-75
2020/12/20 12:35:04;;;;;;;13.52;2.97;;;14.60;70.40;;;;;;5075039;28;20031;-77
2020/12/20 12:37:30;;;;;;;10.63;2.55;;;14.30;71.40;;;;;;5073451;28;20032;-76
2020/12/20 12:39:56;;;;;;;13.00;2.90;;;14.20;71.90;;;;;;5074632;28;20376;-76
2020/12/20 12:42:21;;;;;;;13.25;2.50;;;14.00;72.10;;;;;;5074685;28;20036;-77
2020/12/20 12:44:48;;;;;;;11.20;2.47;;;13.80;72.70;;;;;;5074647;28;20104;-76
2020/12/20 12:47:13;;;;;;;12.30;2.20;;;13.60;73.30;;;;;;5069600;28;20047;-84
2020/12/20 12:49:39;;;;;;;13.85;2.70;;;13.50;73.90;;;;;;5057419;28;20028;-84